createdAt,value
2023-04-19T00:00:48.460Z,100.00
2023-04-19T00:03:17.865Z,100.00
2023-04-19T00:05:48.391Z,100.00
2023-04-19T00:08:17.147Z,100.00
2023-04-19T00:10:45.877Z,100.00
2023-04-19T00:13:14.311Z,100.00
2023-04-19T00:15:45.798Z,100.00
2023-04-19T00:18:14.997Z,100.00
2023-04-19T00:20:43.414Z,100.00
2023-04-19T00:23:13.739Z,100.00
2023-04-19T00:25:42.195Z,100.00
2023-04-19T00:28:10.743Z,100.00
2023-04-19T00:30:39.592Z,100.00
2023-04-19T00:33:13.145Z,100.00
2023-04-19T00:35:43.222Z,100.00
2023-04-19T00:38:13.129Z,100.00
2023-04-19T00:40:41.670Z,100.00
2023-04-19T00:43:10.160Z,100.00
2023-04-19T00:45:39.118Z,100.00
2023-04-19T00:48:08.415Z,100.00
2023-04-19T00:50:37.804Z,100.00
2023-04-19T00:53:06.397Z,100.00
2023-04-19T00:55:39.137Z,100.00
2023-04-19T00:58:08.601Z,100.00
2023-04-19T01:00:37.388Z,100.00
2023-04-19T01:03:07.125Z,100.00
2023-04-19T01:05:35.700Z,100.00
2023-04-19T01:08:04.174Z,100.00
2023-04-19T01:10:32.720Z,100.00
2023-04-19T01:13:02.623Z,100.00
2023-04-19T01:15:32.525Z,100.00
2023-04-19T01:18:02.879Z,100.00
2023-04-19T01:20:31.778Z,100.00
2023-04-19T01:23:02.284Z,100.00
2023-04-19T01:25:30.746Z,100.00
2023-04-19T01:27:59.358Z,100.00
2023-04-19T01:30:28.546Z,100.00
2023-04-19T01:32:57.536Z,100.00
2023-04-19T01:35:26.325Z,100.00
2023-04-19T01:37:56.612Z,100.00
2023-04-19T01:40:27.643Z,100.00
2023-04-19T01:42:56.216Z,100.00
2023-04-19T01:45:24.932Z,100.00
2023-04-19T01:47:53.802Z,100.00
2023-04-19T01:50:22.488Z,100.00
2023-04-19T01:52:50.955Z,100.00
2023-04-19T01:55:19.753Z,100.00
2023-04-19T01:57:49.745Z,100.00
2023-04-19T02:00:18.813Z,100.00
2023-04-19T02:02:47.381Z,100.00
2023-04-19T02:05:16.102Z,100.00
2023-04-19T02:07:44.646Z,100.00
2023-04-19T02:10:13.507Z,100.00
2023-04-19T02:12:43.167Z,100.00
2023-04-19T02:15:13.537Z,100.00
2023-04-19T02:17:42.437Z,100.00
2023-04-19T02:20:12.004Z,100.00
2023-04-19T02:22:41.435Z,100.00
2023-04-19T02:25:10.717Z,100.00
2023-04-19T02:27:39.384Z,100.00
2023-04-19T02:30:11.713Z,100.00
2023-04-19T02:32:41.541Z,100.00
2023-04-19T02:35:10.680Z,100.00
2023-04-19T02:37:39.322Z,100.00
2023-04-19T02:40:10.449Z,100.00
2023-04-19T02:42:38.847Z,100.00
2023-04-19T02:45:09.052Z,100.00
2023-04-19T02:47:37.675Z,100.00
2023-04-19T02:50:08.850Z,100.00
2023-04-19T02:52:37.284Z,100.00
2023-04-19T02:55:06.170Z,100.00
2023-04-19T02:57:34.768Z,100.00
2023-04-19T03:00:05.314Z,100.00
2023-04-19T03:02:33.915Z,100.00
2023-04-19T03:05:02.741Z,99.61
2023-04-19T03:07:32.745Z,99.28
2023-04-19T03:10:01.353Z,99.24
2023-04-19T03:12:29.874Z,100.00
2023-04-19T03:14:58.643Z,98.15
2023-04-19T03:17:27.223Z,98.26
2023-04-19T03:19:57.083Z,98.17
2023-04-19T03:22:25.504Z,97.43
2023-04-19T03:24:56.152Z,98.87
2023-04-19T03:27:24.640Z,98.44
2023-04-19T03:29:53.093Z,98.64
2023-04-19T03:32:21.664Z,98.93
2023-04-19T03:34:50.622Z,99.66
2023-04-19T03:37:19.142Z,99.30
2023-04-19T03:39:47.644Z,99.19
2023-04-19T03:42:17.533Z,99.52
2023-04-19T03:44:46.359Z,100.00
2023-04-19T03:47:15.037Z,100.00
2023-04-19T03:49:43.474Z,99.74
2023-04-19T03:52:11.911Z,100.00
2023-04-19T03:54:40.779Z,100.00
2023-04-19T03:57:09.332Z,100.00
2023-04-19T03:59:39.213Z,100.00
2023-04-19T04:02:08.244Z,100.00
2023-04-19T04:04:36.987Z,100.00
2023-04-19T04:07:05.680Z,100.00
2023-04-19T04:09:34.398Z,99.99
2023-04-19T04:12:03.259Z,100.00
2023-04-19T04:14:31.680Z,99.37
2023-04-19T04:17:01.733Z,99.67
2023-04-19T04:19:30.357Z,98.42
2023-04-19T04:21:58.748Z,99.59
2023-04-19T04:24:28.240Z,99.76
2023-04-19T04:27:00.965Z,98.66
2023-04-19T04:29:29.632Z,100.00
2023-04-19T04:31:58.217Z,100.00
2023-04-19T04:34:28.411Z,100.00
2023-04-19T04:36:57.054Z,100.00
2023-04-19T04:39:25.552Z,100.00
2023-04-19T04:41:54.035Z,100.00
2023-04-19T04:44:22.768Z,100.00
2023-04-19T04:46:51.501Z,100.00
2023-04-19T04:49:19.985Z,100.00
2023-04-19T04:51:50.228Z,100.00
2023-04-19T04:54:18.823Z,100.00
2023-04-19T04:56:47.351Z,100.00
2023-04-19T04:59:15.884Z,100.00
2023-04-19T05:01:44.338Z,100.00
2023-04-19T05:04:12.921Z,100.00
2023-04-19T05:06:41.764Z,100.00
2023-04-19T05:09:11.768Z,100.00
2023-04-19T05:11:40.228Z,100.00
2023-04-19T05:14:08.616Z,100.00
2023-04-19T05:16:37.530Z,100.00
2023-04-19T05:19:05.962Z,100.00
2023-04-19T05:21:35.984Z,100.00
2023-04-19T05:24:04.569Z,100.00
2023-04-19T05:26:34.419Z,100.00
2023-04-19T05:29:03.048Z,100.00
2023-04-19T05:31:31.853Z,100.00
2023-04-19T05:34:00.586Z,100.00
2023-04-19T05:36:29.010Z,100.00
2023-04-19T05:38:57.520Z,100.00
2023-04-19T05:41:26.213Z,100.00
2023-04-19T05:43:57.210Z,100.00
2023-04-19T05:46:25.798Z,100.00
2023-04-19T05:48:54.487Z,100.00
2023-04-19T05:51:22.914Z,100.00
2023-04-19T05:53:51.500Z,100.00
2023-04-19T05:56:19.987Z,100.00
2023-04-19T05:58:48.734Z,100.00
2023-04-19T06:01:19.037Z,100.00
2023-04-19T06:03:48.466Z,100.00
2023-04-19T06:06:17.162Z,100.00
2023-04-19T06:08:45.677Z,100.00
2023-04-19T06:11:24.605Z,100.00
2023-04-19T06:13:57.754Z,100.00
2023-04-19T06:16:27.634Z,100.00
2023-04-19T06:18:59.228Z,100.00
2023-04-19T06:21:27.969Z,100.00
2023-04-19T06:23:56.516Z,100.00
2023-04-19T06:26:24.956Z,100.00
2023-04-19T06:28:53.542Z,100.00
2023-04-19T06:31:22.447Z,100.00
2023-04-19T06:33:52.498Z,100.00
2023-04-19T06:36:21.390Z,100.00
2023-04-19T06:38:50.421Z,100.00
2023-04-19T06:41:19.707Z,100.00
2023-04-19T06:43:48.279Z,100.00
2023-04-19T06:46:16.850Z,100.00
2023-04-19T06:48:45.471Z,100.00
2023-04-19T06:51:15.288Z,100.00
2023-04-19T06:53:44.911Z,100.00
2023-04-19T06:56:13.789Z,100.00
2023-04-19T06:58:42.283Z,100.00
2023-04-19T07:01:12.210Z,100.00
2023-04-19T07:03:40.978Z,100.00
2023-04-19T07:06:09.835Z,100.00
2023-04-19T07:08:49.347Z,100.00
2023-04-19T07:11:20.398Z,100.00
2023-04-19T07:13:49.588Z,100.00
2023-04-19T07:16:18.350Z,100.00
2023-04-19T07:18:47.003Z,100.00
2023-04-19T07:21:15.534Z,100.00
2023-04-19T07:23:45.531Z,100.00
2023-04-19T07:26:15.123Z,100.00
2023-04-19T07:28:43.990Z,100.00
2023-04-19T07:31:17.108Z,100.00
2023-04-19T07:33:46.068Z,100.00
2023-04-19T07:36:14.598Z,100.00
2023-04-19T07:38:44.506Z,100.00
2023-04-19T07:41:13.202Z,100.00
2023-04-19T07:43:41.798Z,100.00
2023-04-19T07:46:16.462Z,100.00
2023-04-19T07:48:45.050Z,100.00
2023-04-19T07:51:14.660Z,100.00
2023-04-19T07:53:45.173Z,100.00
2023-04-19T07:56:14.568Z,100.00
2023-04-19T07:58:44.001Z,100.00
2023-04-19T08:01:14.109Z,100.00
2023-04-19T08:03:43.145Z,100.00
2023-04-19T08:06:12.973Z,100.00
2023-04-19T08:08:42.084Z,100.00
2023-04-19T08:11:14.391Z,100.00
2023-04-19T08:13:48.600Z,100.00
2023-04-19T08:19:00.702Z,100.00
2023-04-19T08:21:38.494Z,100.00
2023-04-19T08:24:10.216Z,100.00
2023-04-19T08:26:40.547Z,100.00
2023-04-19T08:29:09.133Z,100.00
2023-04-19T08:31:37.944Z,100.00
2023-04-19T08:34:06.485Z,100.00
2023-04-19T08:36:41.082Z,100.00
2023-04-19T08:39:29.382Z,100.00
2023-04-19T08:42:13.519Z,100.00
2023-04-19T08:45:22.663Z,100.00
2023-04-19T08:50:31.166Z,100.00
2023-04-19T08:53:23.774Z,100.00
2023-04-19T08:56:12.777Z,100.00
2023-04-19T09:01:33.787Z,100.00
2023-04-19T09:04:26.281Z,100.00
2023-04-19T09:06:54.635Z,100.00
2023-04-19T09:09:35.559Z,100.00
2023-04-19T09:12:18.276Z,100.00
2023-04-19T09:17:21.447Z,100.00
2023-04-19T09:19:50.923Z,100.00
2023-04-19T09:22:20.072Z,100.00
2023-04-19T09:27:27.606Z,100.00
2023-04-19T09:29:58.264Z,100.00
2023-04-19T09:32:27.437Z,100.00
2023-04-19T09:34:57.373Z,100.00
2023-04-19T09:37:56.696Z,100.00
2023-04-19T09:40:25.464Z,100.00
2023-04-19T09:45:30.585Z,100.00
2023-04-19T09:48:04.592Z,100.00
2023-04-19T09:50:38.878Z,100.00
2023-04-19T09:53:19.608Z,100.00
2023-04-19T09:56:00.397Z,100.00
2023-04-19T10:01:14.189Z,100.00
2023-04-19T10:03:46.219Z,100.00
2023-04-19T10:08:51.832Z,100.00
2023-04-19T10:11:23.081Z,100.00
2023-04-19T10:13:55.489Z,100.00
2023-04-19T10:16:26.680Z,100.00
2023-04-19T10:18:56.409Z,100.00
2023-04-19T10:21:25.994Z,100.00
2023-04-19T10:23:54.915Z,100.00
2023-04-19T10:26:23.752Z,100.00
2023-04-19T10:28:53.732Z,100.00
2023-04-19T10:31:24.210Z,100.00
2023-04-19T10:33:54.745Z,100.00
2023-04-19T10:36:23.890Z,100.00
2023-04-19T10:38:54.124Z,100.00
2023-04-19T10:41:23.524Z,100.00
2023-04-19T10:44:13.160Z,100.00
2023-04-19T10:46:41.838Z,100.00
2023-04-19T10:49:13.767Z,100.00
2023-04-19T10:51:49.354Z,100.00
2023-04-19T10:54:31.736Z,100.00
2023-04-19T10:57:05.692Z,100.00
2023-04-19T10:59:35.620Z,100.00
2023-04-19T11:02:05.812Z,100.00
2023-04-19T11:05:11.748Z,100.00
2023-04-19T11:07:43.742Z,100.00
2023-04-19T11:10:13.036Z,100.00
2023-04-19T11:12:45.524Z,100.00
2023-04-19T11:15:14.135Z,100.00
2023-04-19T11:17:42.896Z,100.00
2023-04-19T11:20:13.785Z,100.00
2023-04-19T11:22:44.875Z,100.00
2023-04-19T11:25:14.804Z,100.00
2023-04-19T11:27:44.662Z,100.00
2023-04-19T11:30:15.188Z,100.00
2023-04-19T11:32:48.677Z,100.00
2023-04-19T11:35:21.014Z,100.00
2023-04-19T11:37:52.174Z,100.00
2023-04-19T11:40:22.048Z,100.00
2023-04-19T11:42:56.587Z,100.00
2023-04-19T11:45:31.659Z,100.00
2023-04-19T11:48:03.795Z,100.00
2023-04-19T11:50:33.897Z,100.00
2023-04-19T11:53:13.209Z,100.00
2023-04-19T11:55:46.146Z,100.00
2023-04-19T11:58:30.119Z,100.00
2023-04-19T12:01:01.112Z,100.00
2023-04-19T12:03:30.006Z,100.00
2023-04-19T12:06:00.130Z,100.00
2023-04-19T12:08:37.301Z,100.00
2023-04-19T12:11:06.986Z,100.00
2023-04-19T12:13:36.783Z,100.00
2023-04-19T12:16:05.784Z,100.00
2023-04-19T12:18:49.284Z,100.00
2023-04-19T12:21:28.414Z,100.00
2023-04-19T12:23:59.915Z,100.00
2023-04-19T12:26:30.371Z,100.00
2023-04-19T12:28:59.941Z,100.00
2023-04-19T12:31:28.964Z,100.00
2023-04-19T12:33:57.552Z,100.00
2023-04-19T12:36:26.704Z,100.00
2023-04-19T12:38:55.170Z,100.00
2023-04-19T12:41:25.370Z,100.00
2023-04-19T12:43:53.819Z,100.00
2023-04-19T12:46:22.343Z,100.00
2023-04-19T12:48:51.034Z,100.00
2023-04-19T12:51:19.539Z,100.00
2023-04-19T12:53:50.900Z,100.00
2023-04-19T12:56:19.554Z,100.00
2023-04-19T12:58:49.551Z,100.00
2023-04-19T13:01:18.117Z,100.00
2023-04-19T13:03:47.995Z,100.00
2023-04-19T13:06:17.418Z,100.00
2023-04-19T13:08:47.732Z,100.00
2023-04-19T13:11:17.977Z,100.00
2023-04-19T13:13:46.414Z,100.00
2023-04-19T13:16:16.254Z,100.00
2023-04-19T13:18:44.737Z,100.00
2023-04-19T13:21:13.586Z,100.00
2023-04-19T13:23:44.167Z,100.00
2023-04-19T13:26:12.895Z,100.00
2023-04-19T13:28:43.696Z,100.00
2023-04-19T13:31:12.267Z,100.00
2023-04-19T13:33:42.432Z,100.00
2023-04-19T13:36:10.970Z,100.00
2023-04-19T13:38:39.587Z,100.00
2023-04-19T13:41:08.130Z,100.00
2023-04-19T13:43:36.849Z,100.00
2023-04-19T13:46:05.322Z,100.00
2023-04-19T13:48:34.034Z,100.00
2023-04-19T13:51:04.239Z,100.00
2023-04-19T13:53:32.960Z,100.00
2023-04-19T13:56:01.900Z,100.00
2023-04-19T13:58:30.624Z,100.00
2023-04-19T14:00:59.321Z,100.00
2023-04-19T14:03:28.139Z,100.00
2023-04-19T14:05:56.908Z,100.00
2023-04-19T14:08:27.353Z,100.00
2023-04-19T14:10:56.149Z,100.00
2023-04-19T14:13:24.658Z,100.00
2023-04-19T14:15:53.248Z,100.00
2023-04-19T14:18:21.686Z,100.00
2023-04-19T14:20:50.248Z,100.00
2023-04-19T14:23:18.743Z,100.00
2023-04-19T14:25:48.703Z,100.00
2023-04-19T14:28:17.356Z,100.00
2023-04-19T14:30:46.294Z,100.00
2023-04-19T14:33:15.304Z,100.00
2023-04-19T14:35:44.437Z,100.00
2023-04-19T14:38:13.075Z,100.00
2023-04-19T14:40:41.814Z,100.00
2023-04-19T14:43:16.318Z,100.00
2023-04-19T14:45:45.153Z,100.00
2023-04-19T14:48:13.768Z,100.00
2023-04-19T14:50:42.262Z,100.00
2023-04-19T14:53:11.263Z,100.00
2023-04-19T14:55:40.061Z,100.00
2023-04-19T14:58:08.689Z,100.00
2023-04-19T15:00:39.551Z,100.00
2023-04-19T15:03:08.216Z,100.00
2023-04-19T15:05:37.572Z,100.00
2023-04-19T15:08:10.592Z,100.00
2023-04-19T15:10:43.310Z,100.00
2023-04-19T15:13:11.969Z,100.00
2023-04-19T15:15:42.434Z,100.00
2023-04-19T15:18:11.012Z,100.00
2023-04-19T15:20:39.982Z,100.00
2023-04-19T15:23:08.798Z,100.00
2023-04-19T15:25:37.486Z,100.00
2023-04-19T15:28:06.678Z,100.00
2023-04-19T15:30:35.147Z,100.00
2023-04-19T15:33:07.911Z,100.00
2023-04-19T15:35:36.351Z,100.00
2023-04-19T15:38:05.352Z,100.00
2023-04-19T15:40:34.322Z,100.00
2023-04-19T15:43:02.900Z,100.00
2023-04-19T15:45:31.292Z,100.00
2023-04-19T15:48:00.186Z,100.00
2023-04-19T15:50:30.304Z,100.00
2023-04-19T15:52:59.425Z,100.00
2023-04-19T15:55:28.301Z,100.00
2023-04-19T15:57:56.956Z,100.00
2023-04-19T16:00:29.776Z,100.00
2023-04-19T16:02:58.604Z,100.00
2023-04-19T16:05:27.601Z,100.00
2023-04-19T16:08:09.283Z,100.00
2023-04-19T16:10:39.032Z,100.00
2023-04-19T16:13:07.860Z,100.00
2023-04-19T16:15:36.305Z,100.00
2023-04-19T16:18:05.013Z,100.00
2023-04-19T16:20:33.864Z,100.00
2023-04-19T16:23:03.724Z,100.00
2023-04-19T16:25:34.741Z,100.00
2023-04-19T16:28:03.259Z,100.00
2023-04-19T16:30:31.769Z,100.00
2023-04-19T16:33:00.855Z,100.00
2023-04-19T16:35:29.306Z,100.00
2023-04-19T16:37:58.072Z,100.00
2023-04-19T16:40:27.982Z,100.00
2023-04-19T16:42:58.488Z,100.00
2023-04-19T16:45:27.988Z,100.00
2023-04-19T16:47:56.526Z,100.00
2023-04-19T16:50:25.508Z,100.00
2023-04-19T16:52:54.106Z,100.00
2023-04-19T16:55:22.797Z,100.00
2023-04-19T16:57:53.995Z,100.00
2023-04-19T17:00:24.461Z,100.00
2023-04-19T17:02:53.518Z,100.00
2023-04-19T17:05:22.304Z,100.00
2023-04-19T17:07:52.366Z,100.00
2023-04-19T17:10:36.090Z,100.00
2023-04-19T17:13:10.565Z,100.00
2023-04-19T17:15:44.044Z,100.00
2023-04-19T17:18:12.560Z,100.00
2023-04-19T17:20:41.920Z,100.00
2023-04-19T17:23:10.395Z,100.00
2023-04-19T17:25:38.824Z,100.00
2023-04-19T17:28:07.837Z,100.00
2023-04-19T17:30:36.305Z,100.00
2023-04-19T17:33:08.596Z,100.00
2023-04-19T17:35:37.063Z,100.00
2023-04-19T17:38:05.944Z,100.00
2023-04-19T17:40:34.374Z,100.00
2023-04-19T17:43:02.802Z,100.00
2023-04-19T17:45:31.405Z,100.00
2023-04-19T17:48:00.226Z,100.00
2023-04-19T17:50:30.386Z,100.00
2023-04-19T17:52:59.002Z,100.00
2023-04-19T17:55:27.635Z,100.00
2023-04-19T17:57:56.551Z,100.00
2023-04-19T18:00:25.037Z,100.00
2023-04-19T18:02:53.798Z,100.00
2023-04-19T18:05:22.546Z,100.00
2023-04-19T18:07:52.448Z,100.00
2023-04-19T18:10:22.659Z,100.00
2023-04-19T18:12:51.112Z,100.00
2023-04-19T18:15:19.949Z,100.00
2023-04-19T18:17:49.398Z,100.00
2023-04-19T18:20:18.310Z,100.00
2023-04-19T18:22:50.550Z,100.00
2023-04-19T18:25:20.946Z,100.00
2023-04-19T18:27:50.682Z,100.00
2023-04-19T18:30:19.157Z,100.00
2023-04-19T18:32:48.281Z,100.00
2023-04-19T18:35:17.282Z,100.00
2023-04-19T18:37:46.205Z,100.00
2023-04-19T18:40:14.932Z,100.00
2023-04-19T18:42:44.889Z,100.00
2023-04-19T18:45:14.668Z,100.00
2023-04-19T18:47:43.134Z,100.00
2023-04-19T18:50:12.373Z,100.00
2023-04-19T18:52:41.115Z,100.00
2023-04-19T18:55:11.734Z,100.00
2023-04-19T18:57:40.499Z,100.00
2023-04-19T19:00:11.839Z,100.00
2023-04-19T19:02:41.395Z,100.00
2023-04-19T19:05:13.802Z,100.00
2023-04-19T19:07:42.988Z,100.00
2023-04-19T19:10:18.165Z,100.00
2023-04-19T19:12:49.506Z,100.00
2023-04-19T19:15:19.842Z,100.00
2023-04-19T19:17:50.393Z,100.00
2023-04-19T19:20:20.532Z,100.00
2023-04-19T19:22:49.719Z,100.00
2023-04-19T19:25:18.858Z,100.00
2023-04-19T19:28:05.772Z,100.00
2023-04-19T19:30:40.206Z,100.00
2023-04-19T19:33:09.845Z,100.00
2023-04-19T19:35:39.616Z,100.00
2023-04-19T19:38:08.524Z,100.00
2023-04-19T19:40:58.232Z,100.00
2023-04-19T19:43:26.287Z,100.00
2023-04-19T19:45:56.185Z,100.00
2023-04-19T19:48:25.424Z,100.00
2023-04-19T19:51:28.522Z,100.00
2023-04-19T19:53:43.242Z,100.00
2023-04-19T19:56:18.990Z,100.00
2023-04-19T19:58:51.999Z,100.00
2023-04-19T20:01:23.098Z,100.00
2023-04-19T20:03:52.924Z,100.00
2023-04-19T20:08:53.070Z,100.00
2023-04-19T20:11:22.035Z,100.00
2023-04-19T20:13:51.093Z,100.00
2023-04-19T20:16:19.959Z,100.00
2023-04-19T20:18:50.945Z,100.00
2023-04-19T20:21:20.655Z,100.00
2023-04-19T20:23:49.148Z,100.00
2023-04-19T20:26:17.575Z,100.00
2023-04-19T20:28:45.965Z,100.00
2023-04-19T20:31:14.415Z,100.00
2023-04-19T20:33:42.789Z,100.00
2023-04-19T20:36:14.214Z,100.00
2023-04-19T20:38:42.816Z,100.00
2023-04-19T20:41:12.234Z,100.00
2023-04-19T20:43:40.924Z,100.00
2023-04-19T20:46:10.206Z,100.00
2023-04-19T20:48:39.585Z,100.00
2023-04-19T20:51:08.036Z,100.00
2023-04-19T20:53:37.987Z,100.00
2023-04-19T20:56:07.393Z,100.00
2023-04-19T20:58:36.493Z,100.00
2023-04-19T21:01:05.210Z,100.00
2023-04-19T21:03:33.996Z,100.00
2023-04-19T21:06:02.837Z,100.00
2023-04-19T21:08:31.411Z,100.00
2023-04-19T21:11:01.327Z,100.00
2023-04-19T21:13:29.932Z,100.00
2023-04-19T21:15:58.564Z,100.00
2023-04-19T21:18:30.090Z,100.00
2023-04-19T21:20:58.672Z,100.00
2023-04-19T21:23:27.355Z,100.00
2023-04-19T21:25:56.200Z,100.00
2023-04-19T21:28:26.317Z,100.00
2023-04-19T21:30:55.613Z,100.00
2023-04-19T21:33:24.384Z,100.00
2023-04-19T21:35:52.971Z,100.00
2023-04-19T21:38:21.560Z,100.00
2023-04-19T21:40:52.106Z,100.00
2023-04-19T21:43:20.678Z,100.00
2023-04-19T21:45:50.681Z,100.00
2023-04-19T21:48:19.479Z,100.00
2023-04-19T21:50:48.698Z,100.00
2023-04-19T21:53:17.170Z,100.00
2023-04-19T21:55:45.757Z,100.00
2023-04-19T21:58:14.274Z,100.00
2023-04-19T22:00:43.084Z,100.00
2023-04-19T22:03:13.069Z,100.00
2023-04-19T22:05:42.866Z,100.00
2023-04-19T22:08:12.298Z,100.00
2023-04-19T22:10:41.304Z,100.00
2023-04-19T22:13:10.581Z,100.00
2023-04-19T22:15:39.092Z,100.00
2023-04-19T22:18:08.582Z,100.00
2023-04-19T22:20:40.039Z,100.00
2023-04-19T22:23:08.682Z,100.00
2023-04-19T22:25:37.323Z,100.00
2023-04-19T22:28:07.776Z,100.00
2023-04-19T22:30:36.479Z,100.00
2023-04-19T22:33:05.319Z,100.00
2023-04-19T22:35:34.143Z,100.00
2023-04-19T22:38:04.150Z,100.00
2023-04-19T22:40:32.746Z,100.00
2023-04-19T22:43:01.424Z,100.00
2023-04-19T22:45:30.013Z,100.00
2023-04-19T22:47:58.646Z,100.00
2023-04-19T22:50:27.244Z,100.00
2023-04-19T22:52:58.896Z,100.00
2023-04-19T22:55:28.981Z,100.00
2023-04-19T22:57:57.456Z,100.00
2023-04-19T23:00:27.529Z,100.00
2023-04-19T23:02:57.018Z,100.00
2023-04-19T23:05:27.033Z,100.00
2023-04-19T23:07:57.460Z,100.00
2023-04-19T23:10:26.357Z,100.00
2023-04-19T23:12:56.602Z,100.00
2023-04-19T23:15:26.265Z,100.00
2023-04-19T23:17:54.799Z,100.00
2023-04-19T23:20:24.294Z,100.00
2023-04-19T23:22:52.765Z,100.00
2023-04-19T23:25:21.163Z,100.00
2023-04-19T23:27:50.878Z,100.00
2023-04-19T23:30:20.937Z,100.00
2023-04-19T23:32:49.444Z,100.00
2023-04-19T23:35:18.376Z,100.00
2023-04-19T23:37:46.838Z,100.00
2023-04-19T23:40:15.410Z,100.00
2023-04-19T23:42:43.833Z,100.00
2023-04-19T23:45:12.347Z,100.00
2023-04-19T23:47:42.201Z,100.00
2023-04-19T23:50:11.779Z,100.00
2023-04-19T23:52:40.376Z,100.00
2023-04-19T23:55:09.839Z,100.00
2023-04-19T23:57:38.538Z,100.00
